sensor_id;sensor_type;location;lat;lon;timestamp;P1;durP1;ratioP1;P2;durP2;ratioP2
13255;SDS011;37913;48.370;10.930;2023-05-14T00:01:18;93.28;;;42.65;;
13255;SDS011;37913;48.370;10.930;2023-05-14T00:03:45;94.07;;;43.08;;
13255;SDS011;37913;48.370;10.930;2023-05-14T00:06:14;89.78;;;41.33;;
13255;SDS011;37913;48.370;10.930;2023-05-14T00:08:41;98.55;;;43.78;;
13255;SDS011;37913;48.370;10.930;2023-05-14T00:11:07;90.22;;;42.03;;
13255;SDS011;37913;48.370;10.930;2023-05-14T00:13:34;90.32;;;42.25;;
13255;SDS011;37913;48.370;10.930;2023-05-14T00:16:02;95.53;;;43.47;;
13255;SDS011;37913;48.370;10.930;2023-05-14T00:18:30;92.00;;;42.17;;
13255;SDS011;37913;48.370;10.930;2023-05-14T00:20:57;85.68;;;41.22;;
13255;SDS011;37913;48.370;10.930;2023-05-14T00:23:27;85.70;;;40.85;;
13255;SDS011;37913;48.370;10.930;2023-05-14T00:25:54;94.57;;;42.50;;
13255;SDS011;37913;48.370;10.930;2023-05-14T00:28:21;88.35;;;41.53;;
13255;SDS011;37913;48.370;10.930;2023-05-14T00:30:48;93.40;;;42.33;;
13255;SDS011;37913;48.370;10.930;2023-05-14T00:33:15;93.63;;;42.20;;
13255;SDS011;37913;48.370;10.930;2023-05-14T00:35:42;93.88;;;42.92;;
13255;SDS011;37913;48.370;10.930;2023-05-14T00:38:09;96.43;;;43.33;;
13255;SDS011;37913;48.370;10.930;2023-05-14T00:40:42;90.15;;;41.80;;
13255;SDS011;37913;48.370;10.930;2023-05-14T00:43:14;89.70;;;42.17;;
13255;SDS011;37913;48.370;10.930;2023-05-14T00:45:41;92.65;;;41.92;;
13255;SDS011;37913;48.370;10.930;2023-05-14T00:48:08;93.50;;;42.03;;
13255;SDS011;37913;48.370;10.930;2023-05-14T00:50:35;93.75;;;42.55;;
13255;SDS011;37913;48.370;10.930;2023-05-14T00:53:02;94.75;;;41.97;;
13255;SDS011;37913;48.370;10.930;2023-05-14T00:55:34;93.65;;;42.22;;
13255;SDS011;37913;48.370;10.930;2023-05-14T00:58:03;93.35;;;42.35;;
13255;SDS011;37913;48.370;10.930;2023-05-14T01:00:32;92.47;;;42.40;;
13255;SDS011;37913;48.370;10.930;2023-05-14T01:03:00;96.28;;;42.65;;
13255;SDS011;37913;48.370;10.930;2023-05-14T01:05:28;87.57;;;40.85;;
13255;SDS011;37913;48.370;10.930;2023-05-14T01:08:04;101.95;;;43.25;;
13255;SDS011;37913;48.370;10.930;2023-05-14T01:10:37;92.57;;;41.78;;
13255;SDS011;37913;48.370;10.930;2023-05-14T01:13:17;106.82;;;45.65;;
13255;SDS011;37913;48.370;10.930;2023-05-14T01:15:49;104.60;;;43.88;;
13255;SDS011;37913;48.370;10.930;2023-05-14T01:18:17;92.95;;;42.38;;
13255;SDS011;37913;48.370;10.930;2023-05-14T01:20:44;86.47;;;41.05;;
13255;SDS011;37913;48.370;10.930;2023-05-14T01:23:16;91.00;;;41.35;;
13255;SDS011;37913;48.370;10.930;2023-05-14T01:25:43;95.68;;;42.17;;
13255;SDS011;37913;48.370;10.930;2023-05-14T01:28:11;97.45;;;42.80;;
13255;SDS011;37913;48.370;10.930;2023-05-14T01:30:44;103.88;;;44.78;;
13255;SDS011;37913;48.370;10.930;2023-05-14T01:33:15;82.75;;;39.40;;
13255;SDS011;37913;48.370;10.930;2023-05-14T01:35:44;91.20;;;41.38;;
13255;SDS011;37913;48.370;10.930;2023-05-14T01:38:11;88.90;;;41.10;;
13255;SDS011;37913;48.370;10.930;2023-05-14T01:40:44;96.88;;;43.00;;
13255;SDS011;37913;48.370;10.930;2023-05-14T01:43:12;100.43;;;43.55;;
13255;SDS011;37913;48.370;10.930;2023-05-14T01:45:42;103.63;;;43.80;;
13255;SDS011;37913;48.370;10.930;2023-05-14T01:48:09;83.30;;;40.88;;
13255;SDS011;37913;48.370;10.930;2023-05-14T01:50:36;95.68;;;42.22;;
13255;SDS011;37913;48.370;10.930;2023-05-14T01:53:03;97.60;;;44.10;;
13255;SDS011;37913;48.370;10.930;2023-05-14T01:55:30;91.50;;;41.67;;
13255;SDS011;37913;48.370;10.930;2023-05-14T01:57:58;90.30;;;41.78;;
13255;SDS011;37913;48.370;10.930;2023-05-14T02:00:26;91.28;;;41.78;;
13255;SDS011;37913;48.370;10.930;2023-05-14T02:02:53;88.05;;;41.63;;
13255;SDS011;37913;48.370;10.930;2023-05-14T02:05:20;90.72;;;41.17;;
13255;SDS011;37913;48.370;10.930;2023-05-14T02:07:47;82.38;;;40.17;;
13255;SDS011;37913;48.370;10.930;2023-05-14T02:10:14;90.30;;;41.10;;
13255;SDS011;37913;48.370;10.930;2023-05-14T02:12:41;88.20;;;41.00;;
13255;SDS011;37913;48.370;10.930;2023-05-14T02:15:10;86.13;;;41.40;;
13255;SDS011;37913;48.370;10.930;2023-05-14T02:17:37;97.47;;;43.67;;
13255;SDS011;37913;48.370;10.930;2023-05-14T02:20:05;94.32;;;43.67;;
13255;SDS011;37913;48.370;10.930;2023-05-14T02:22:34;93.03;;;42.60;;
13255;SDS011;37913;48.370;10.930;2023-05-14T02:25:01;99.38;;;43.03;;
13255;SDS011;37913;48.370;10.930;2023-05-14T02:27:28;89.40;;;42.05;;
13255;SDS011;37913;48.370;10.930;2023-05-14T02:29:55;99.63;;;43.65;;
13255;SDS011;37913;48.370;10.930;2023-05-14T02:32:26;90.57;;;42.65;;
13255;SDS011;37913;48.370;10.930;2023-05-14T02:34:53;103.85;;;43.95;;
13255;SDS011;37913;48.370;10.930;2023-05-14T02:37:20;93.15;;;42.47;;
13255;SDS011;37913;48.370;10.930;2023-05-14T02:39:47;86.25;;;41.25;;
13255;SDS011;37913;48.370;10.930;2023-05-14T02:42:14;92.88;;;42.80;;
13255;SDS011;37913;48.370;10.930;2023-05-14T02:44:41;89.50;;;41.75;;
13255;SDS011;37913;48.370;10.930;2023-05-14T02:47:07;98.25;;;43.65;;
13255;SDS011;37913;48.370;10.930;2023-05-14T02:49:36;92.82;;;42.53;;
13255;SDS011;37913;48.370;10.930;2023-05-14T02:52:03;93.63;;;42.58;;
13255;SDS011;37913;48.370;10.930;2023-05-14T02:54:30;101.47;;;43.90;;
13255;SDS011;37913;48.370;10.930;2023-05-14T02:56:57;90.78;;;41.00;;
13255;SDS011;37913;48.370;10.930;2023-05-14T02:59:24;105.47;;;43.45;;
13255;SDS011;37913;48.370;10.930;2023-05-14T03:01:51;96.40;;;42.42;;
13255;SDS011;37913;48.370;10.930;2023-05-14T03:04:18;89.68;;;40.72;;
13255;SDS011;37913;48.370;10.930;2023-05-14T03:06:46;95.90;;;42.47;;
13255;SDS011;37913;48.370;10.930;2023-05-14T03:09:13;80.85;;;39.78;;
13255;SDS011;37913;48.370;10.930;2023-05-14T03:11:41;95.03;;;41.53;;
13255;SDS011;37913;48.370;10.930;2023-05-14T03:14:07;85.32;;;40.50;;
13255;SDS011;37913;48.370;10.930;2023-05-14T03:16:35;96.20;;;43.03;;
13255;SDS011;37913;48.370;10.930;2023-05-14T03:19:02;89.45;;;40.40;;
13255;SDS011;37913;48.370;10.930;2023-05-14T03:21:28;100.15;;;43.33;;
13255;SDS011;37913;48.370;10.930;2023-05-14T03:23:57;94.55;;;42.33;;
13255;SDS011;37913;48.370;10.930;2023-05-14T03:26:24;97.32;;;42.90;;
13255;SDS011;37913;48.370;10.930;2023-05-14T03:28:50;93.88;;;42.25;;
13255;SDS011;37913;48.370;10.930;2023-05-14T03:31:17;76.88;;;38.33;;
13255;SDS011;37913;48.370;10.930;2023-05-14T03:33:44;89.13;;;40.88;;
13255;SDS011;37913;48.370;10.930;2023-05-14T03:36:11;94.35;;;42.35;;
13255;SDS011;37913;48.370;10.930;2023-05-14T03:38:38;86.97;;;40.47;;
13255;SDS011;37913;48.370;10.930;2023-05-14T03:41:07;91.32;;;41.80;;
13255;SDS011;37913;48.370;10.930;2023-05-14T03:43:34;93.43;;;41.90;;
13255;SDS011;37913;48.370;10.930;2023-05-14T03:46:00;86.38;;;39.75;;
13255;SDS011;37913;48.370;10.930;2023-05-14T03:48:27;98.30;;;42.17;;
13255;SDS011;37913;48.370;10.930;2023-05-14T03:50:54;91.15;;;41.88;;
13255;SDS011;37913;48.370;10.930;2023-05-14T03:53:21;103.63;;;44.25;;
13255;SDS011;37913;48.370;10.930;2023-05-14T03:55:48;88.38;;;41.45;;
13255;SDS011;37913;48.370;10.930;2023-05-14T03:58:16;98.25;;;43.22;;
13255;SDS011;37913;48.370;10.930;2023-05-14T04:00:43;98.15;;;43.45;;
13255;SDS011;37913;48.370;10.930;2023-05-14T04:03:10;94.25;;;41.58;;
13255;SDS011;37913;48.370;10.930;2023-05-14T04:05:37;91.15;;;41.88;;
13255;SDS011;37913;48.370;10.930;2023-05-14T04:08:04;91.57;;;41.97;;
13255;SDS011;37913;48.370;10.930;2023-05-14T04:10:32;93.70;;;42.25;;
13255;SDS011;37913;48.370;10.930;2023-05-14T04:13:00;89.70;;;41.30;;
13255;SDS011;37913;48.370;10.930;2023-05-14T04:15:28;93.53;;;42.65;;
13255;SDS011;37913;48.370;10.930;2023-05-14T04:17:55;92.90;;;42.67;;
13255;SDS011;37913;48.370;10.930;2023-05-14T04:20:22;90.90;;;41.58;;
13255;SDS011;37913;48.370;10.930;2023-05-14T04:22:49;92.63;;;41.72;;
13255;SDS011;37913;48.370;10.930;2023-05-14T04:25:17;93.82;;;41.83;;
13255;SDS011;37913;48.370;10.930;2023-05-14T04:27:44;92.68;;;41.63;;
13255;SDS011;37913;48.370;10.930;2023-05-14T04:30:11;86.00;;;40.28;;
13255;SDS011;37913;48.370;10.930;2023-05-14T04:32:40;96.68;;;42.17;;
13255;SDS011;37913;48.370;10.930;2023-05-14T04:35:07;98.82;;;42.45;;
13255;SDS011;37913;48.370;10.930;2023-05-14T04:37:34;99.43;;;43.08;;
13255;SDS011;37913;48.370;10.930;2023-05-14T04:40:01;92.25;;;41.75;;
13255;SDS011;37913;48.370;10.930;2023-05-14T04:42:29;94.57;;;42.17;;
13255;SDS011;37913;48.370;10.930;2023-05-14T04:44:56;90.18;;;40.88;;
13255;SDS011;37913;48.370;10.930;2023-05-14T04:47:23;93.00;;;41.88;;
13255;SDS011;37913;48.370;10.930;2023-05-14T04:49:51;90.63;;;41.95;;
13255;SDS011;37913;48.370;10.930;2023-05-14T04:52:18;96.95;;;42.40;;
13255;SDS011;37913;48.370;10.930;2023-05-14T04:54:45;92.90;;;41.80;;
13255;SDS011;37913;48.370;10.930;2023-05-14T04:57:12;88.43;;;41.78;;
13255;SDS011;37913;48.370;10.930;2023-05-14T04:59:39;88.13;;;41.28;;
13255;SDS011;37913;48.370;10.930;2023-05-14T05:02:06;101.28;;;44.28;;
13255;SDS011;37913;48.370;10.930;2023-05-14T05:04:33;96.60;;;42.75;;
13255;SDS011;37913;48.370;10.930;2023-05-14T05:07:03;110.05;;;45.38;;
13255;SDS011;37913;48.370;10.930;2023-05-14T05:09:30;104.63;;;45.03;;
13255;SDS011;37913;48.370;10.930;2023-05-14T05:11:57;94.68;;;42.67;;
13255;SDS011;37913;48.370;10.930;2023-05-14T05:14:25;99.35;;;43.90;;
13255;SDS011;37913;48.370;10.930;2023-05-14T05:16:52;94.55;;;42.78;;
13255;SDS011;37913;48.370;10.930;2023-05-14T05:19:19;99.30;;;42.90;;
13255;SDS011;37913;48.370;10.930;2023-05-14T05:21:46;94.30;;;42.88;;
13255;SDS011;37913;48.370;10.930;2023-05-14T05:24:14;95.75;;;42.30;;
13255;SDS011;37913;48.370;10.930;2023-05-14T05:26:41;91.80;;;41.75;;
13255;SDS011;37913;48.370;10.930;2023-05-14T05:29:08;96.03;;;43.30;;
13255;SDS011;37913;48.370;10.930;2023-05-14T05:31:35;95.68;;;43.03;;
13255;SDS011;37913;48.370;10.930;2023-05-14T05:34:01;97.40;;;43.17;;
13255;SDS011;37913;48.370;10.930;2023-05-14T05:36:28;101.57;;;44.53;;
13255;SDS011;37913;48.370;10.930;2023-05-14T05:38:56;107.10;;;45.83;;
13255;SDS011;37913;48.370;10.930;2023-05-14T05:41:24;99.47;;;43.72;;
13255;SDS011;37913;48.370;10.930;2023-05-14T05:43:51;93.57;;;41.88;;
13255;SDS011;37913;48.370;10.930;2023-05-14T05:46:18;94.35;;;42.55;;
13255;SDS011;37913;48.370;10.930;2023-05-14T05:48:45;98.13;;;42.92;;
13255;SDS011;37913;48.370;10.930;2023-05-14T05:51:12;98.07;;;43.05;;
13255;SDS011;37913;48.370;10.930;2023-05-14T05:53:39;98.53;;;43.97;;
13255;SDS011;37913;48.370;10.930;2023-05-14T05:56:06;85.35;;;41.15;;
13255;SDS011;37913;48.370;10.930;2023-05-14T05:58:34;87.70;;;42.25;;
13255;SDS011;37913;48.370;10.930;2023-05-14T06:01:01;100.45;;;44.55;;
13255;SDS011;37913;48.370;10.930;2023-05-14T06:03:29;91.68;;;42.20;;
13255;SDS011;37913;48.370;10.930;2023-05-14T06:05:56;84.93;;;41.25;;
13255;SDS011;37913;48.370;10.930;2023-05-14T06:08:23;95.28;;;42.80;;
13255;SDS011;37913;48.370;10.930;2023-05-14T06:10:50;94.50;;;42.33;;
13255;SDS011;37913;48.370;10.930;2023-05-14T06:13:17;91.80;;;42.45;;
13255;SDS011;37913;48.370;10.930;2023-05-14T06:15:45;95.85;;;42.83;;
13255;SDS011;37913;48.370;10.930;2023-05-14T06:18:12;105.90;;;45.05;;
13255;SDS011;37913;48.370;10.930;2023-05-14T06:20:39;96.93;;;43.50;;
13255;SDS011;37913;48.370;10.930;2023-05-14T06:23:06;95.10;;;42.90;;
13255;SDS011;37913;48.370;10.930;2023-05-14T06:25:35;94.07;;;43.00;;
13255;SDS011;37913;48.370;10.930;2023-05-14T06:28:02;97.78;;;43.05;;
13255;SDS011;37913;48.370;10.930;2023-05-14T06:30:29;101.72;;;44.72;;
13255;SDS011;37913;48.370;10.930;2023-05-14T06:32:57;95.82;;;43.50;;
13255;SDS011;37913;48.370;10.930;2023-05-14T06:35:24;97.95;;;43.42;;
13255;SDS011;37913;48.370;10.930;2023-05-14T06:37:51;98.43;;;42.65;;
13255;SDS011;37913;48.370;10.930;2023-05-14T06:40:18;105.88;;;44.70;;
13255;SDS011;37913;48.370;10.930;2023-05-14T06:42:45;102.57;;;43.92;;
13255;SDS011;37913;48.370;10.930;2023-05-14T06:45:12;94.82;;;42.83;;
13255;SDS011;37913;48.370;10.930;2023-05-14T06:47:39;95.28;;;43.10;;
13255;SDS011;37913;48.370;10.930;2023-05-14T06:50:07;94.55;;;42.58;;
13255;SDS011;37913;48.370;10.930;2023-05-14T06:52:36;101.30;;;44.13;;
13255;SDS011;37913;48.370;10.930;2023-05-14T06:55:04;104.47;;;44.70;;
13255;SDS011;37913;48.370;10.930;2023-05-14T06:57:31;93.53;;;42.58;;
13255;SDS011;37913;48.370;10.930;2023-05-14T06:59:59;95.80;;;42.78;;
13255;SDS011;37913;48.370;10.930;2023-05-14T07:02:26;99.30;;;43.88;;
13255;SDS011;37913;48.370;10.930;2023-05-14T07:04:52;110.40;;;45.63;;
13255;SDS011;37913;48.370;10.930;2023-05-14T07:07:21;99.32;;;44.30;;
13255;SDS011;37913;48.370;10.930;2023-05-14T07:09:48;97.07;;;43.53;;
13255;SDS011;37913;48.370;10.930;2023-05-14T07:12:16;103.32;;;44.35;;
13255;SDS011;37913;48.370;10.930;2023-05-14T07:14:43;105.95;;;45.33;;
13255;SDS011;37913;48.370;10.930;2023-05-14T07:17:10;99.57;;;44.70;;
13255;SDS011;37913;48.370;10.930;2023-05-14T07:19:37;90.68;;;42.92;;
13255;SDS011;37913;48.370;10.930;2023-05-14T07:22:04;86.93;;;42.75;;
13255;SDS011;37913;48.370;10.930;2023-05-14T07:24:33;96.78;;;44.00;;
13255;SDS011;37913;48.370;10.930;2023-05-14T07:27:00;84.70;;;41.97;;
13255;SDS011;37913;48.370;10.930;2023-05-14T07:29:27;91.38;;;42.92;;
13255;SDS011;37913;48.370;10.930;2023-05-14T07:31:54;92.10;;;42.88;;
13255;SDS011;37913;48.370;10.930;2023-05-14T07:34:21;103.47;;;45.53;;
13255;SDS011;37913;48.370;10.930;2023-05-14T07:36:48;93.25;;;42.67;;
13255;SDS011;37913;48.370;10.930;2023-05-14T07:39:15;96.53;;;43.42;;
13255;SDS011;37913;48.370;10.930;2023-05-14T07:41:44;97.55;;;44.35;;
13255;SDS011;37913;48.370;10.930;2023-05-14T07:44:11;102.63;;;44.75;;
13255;SDS011;37913;48.370;10.930;2023-05-14T07:46:38;92.40;;;43.40;;
13255;SDS011;37913;48.370;10.930;2023-05-14T07:49:05;99.07;;;45.05;;
13255;SDS011;37913;48.370;10.930;2023-05-14T07:51:33;87.10;;;41.78;;
13255;SDS011;37913;48.370;10.930;2023-05-14T07:54:00;94.88;;;43.40;;
13255;SDS011;37913;48.370;10.930;2023-05-14T07:56:27;107.50;;;46.05;;
13255;SDS011;37913;48.370;10.930;2023-05-14T07:58:56;102.88;;;45.50;;
13255;SDS011;37913;48.370;10.930;2023-05-14T08:01:23;94.50;;;43.30;;
13255;SDS011;37913;48.370;10.930;2023-05-14T08:03:50;108.18;;;46.75;;
13255;SDS011;37913;48.370;10.930;2023-05-14T08:06:18;107.43;;;46.90;;
13255;SDS011;37913;48.370;10.930;2023-05-14T08:08:47;104.68;;;45.85;;
13255;SDS011;37913;48.370;10.930;2023-05-14T08:11:14;96.97;;;44.17;;
13255;SDS011;37913;48.370;10.930;2023-05-14T08:13:41;97.18;;;44.40;;
13255;SDS011;37913;48.370;10.930;2023-05-14T08:16:09;99.50;;;44.00;;
13255;SDS011;37913;48.370;10.930;2023-05-14T08:18:36;95.13;;;42.75;;
13255;SDS011;37913;48.370;10.930;2023-05-14T08:21:04;101.63;;;44.53;;
13255;SDS011;37913;48.370;10.930;2023-05-14T08:23:39;107.68;;;47.25;;
13255;SDS011;37913;48.370;10.930;2023-05-14T08:26:07;86.50;;;42.15;;
13255;SDS011;37913;48.370;10.930;2023-05-14T08:28:34;92.28;;;43.35;;
13255;SDS011;37913;48.370;10.930;2023-05-14T08:31:01;90.88;;;43.28;;
13255;SDS011;37913;48.370;10.930;2023-05-14T08:33:29;90.82;;;43.72;;
13255;SDS011;37913;48.370;10.930;2023-05-14T08:35:56;95.70;;;43.67;;
13255;SDS011;37913;48.370;10.930;2023-05-14T08:38:24;108.07;;;46.90;;
13255;SDS011;37913;48.370;10.930;2023-05-14T08:40:55;91.88;;;42.28;;
13255;SDS011;37913;48.370;10.930;2023-05-14T08:43:23;90.00;;;42.60;;
13255;SDS011;37913;48.370;10.930;2023-05-14T08:45:53;98.20;;;43.72;;
13255;SDS011;37913;48.370;10.930;2023-05-14T08:48:27;93.15;;;42.72;;
13255;SDS011;37913;48.370;10.930;2023-05-14T08:50:57;87.63;;;42.60;;
13255;SDS011;37913;48.370;10.930;2023-05-14T08:53:25;96.22;;;43.00;;
13255;SDS011;37913;48.370;10.930;2023-05-14T08:55:52;91.03;;;42.13;;
13255;SDS011;37913;48.370;10.930;2023-05-14T08:58:19;95.97;;;43.05;;
13255;SDS011;37913;48.370;10.930;2023-05-14T09:00:46;97.03;;;43.97;;
13255;SDS011;37913;48.370;10.930;2023-05-14T09:03:13;90.30;;;42.75;;
13255;SDS011;37913;48.370;10.930;2023-05-14T09:05:43;94.82;;;43.15;;
13255;SDS011;37913;48.370;10.930;2023-05-14T09:08:11;99.60;;;44.67;;
13255;SDS011;37913;48.370;10.930;2023-05-14T09:10:38;87.45;;;42.90;;
13255;SDS011;37913;48.370;10.930;2023-05-14T09:13:05;91.13;;;43.83;;
13255;SDS011;37913;48.370;10.930;2023-05-14T09:15:34;96.95;;;44.55;;
13255;SDS011;37913;48.370;10.930;2023-05-14T09:18:03;96.53;;;45.10;;
13255;SDS011;37913;48.370;10.930;2023-05-14T09:20:31;97.57;;;45.63;;
13255;SDS011;37913;48.370;10.930;2023-05-14T09:22:59;99.30;;;45.65;;
13255;SDS011;37913;48.370;10.930;2023-05-14T09:25:27;84.20;;;43.75;;
13255;SDS011;37913;48.370;10.930;2023-05-14T09:27:57;97.35;;;46.05;;
13255;SDS011;37913;48.370;10.930;2023-05-14T09:30:24;95.88;;;46.30;;
13255;SDS011;37913;48.370;10.930;2023-05-14T09:32:52;90.78;;;44.75;;
13255;SDS011;37913;48.370;10.930;2023-05-14T09:35:22;92.78;;;44.30;;
13255;SDS011;37913;48.370;10.930;2023-05-14T09:37:50;112.20;;;48.72;;
13255;SDS011;37913;48.370;10.930;2023-05-14T09:40:20;101.22;;;45.90;;
13255;SDS011;37913;48.370;10.930;2023-05-14T09:42:48;95.93;;;44.47;;
13255;SDS011;37913;48.370;10.930;2023-05-14T09:45:15;101.30;;;45.10;;
13255;SDS011;37913;48.370;10.930;2023-05-14T09:47:42;92.60;;;43.17;;
13255;SDS011;37913;48.370;10.930;2023-05-14T09:50:09;91.03;;;42.65;;
13255;SDS011;37913;48.370;10.930;2023-05-14T09:52:37;118.70;;;48.40;;
13255;SDS011;37913;48.370;10.930;2023-05-14T09:55:04;114.38;;;46.83;;
13255;SDS011;37913;48.370;10.930;2023-05-14T09:57:33;96.10;;;43.90;;
13255;SDS011;37913;48.370;10.930;2023-05-14T10:00:00;93.10;;;43.45;;
13255;SDS011;37913;48.370;10.930;2023-05-14T10:02:29;87.63;;;42.13;;
13255;SDS011;37913;48.370;10.930;2023-05-14T10:05:02;96.25;;;43.95;;
13255;SDS011;37913;48.370;10.930;2023-05-14T10:07:34;91.68;;;43.67;;
13255;SDS011;37913;48.370;10.930;2023-05-14T10:10:06;102.80;;;45.53;;
13255;SDS011;37913;48.370;10.930;2023-05-14T10:12:37;94.78;;;43.85;;
13255;SDS011;37913;48.370;10.930;2023-05-14T10:15:07;101.20;;;45.58;;
13255;SDS011;37913;48.370;10.930;2023-05-14T10:17:39;95.05;;;43.65;;
13255;SDS011;37913;48.370;10.930;2023-05-14T10:20:09;96.53;;;44.33;;
13255;SDS011;37913;48.370;10.930;2023-05-14T10:22:39;95.32;;;43.70;;
13255;SDS011;37913;48.370;10.930;2023-05-14T10:25:06;97.43;;;43.78;;
13255;SDS011;37913;48.370;10.930;2023-05-14T10:27:34;89.57;;;42.75;;
13255;SDS011;37913;48.370;10.930;2023-05-14T10:30:05;96.43;;;43.70;;
13255;SDS011;37913;48.370;10.930;2023-05-14T10:32:36;96.70;;;43.88;;
13255;SDS011;37913;48.370;10.930;2023-05-14T10:35:13;92.93;;;43.55;;
13255;SDS011;37913;48.370;10.930;2023-05-14T10:37:43;98.38;;;44.20;;
13255;SDS011;37913;48.370;10.930;2023-05-14T10:40:11;95.82;;;43.63;;
13255;SDS011;37913;48.370;10.930;2023-05-14T10:42:40;106.18;;;45.20;;
13255;SDS011;37913;48.370;10.930;2023-05-14T10:45:09;95.57;;;43.20;;
13255;SDS011;37913;48.370;10.930;2023-05-14T10:47:38;107.43;;;46.08;;
13255;SDS011;37913;48.370;10.930;2023-05-14T10:50:06;94.63;;;43.05;;
13255;SDS011;37913;48.370;10.930;2023-05-14T10:52:35;91.22;;;42.75;;
13255;SDS011;37913;48.370;10.930;2023-05-14T10:55:03;94.18;;;43.33;;
13255;SDS011;37913;48.370;10.930;2023-05-14T10:57:33;91.38;;;42.17;;
13255;SDS011;37913;48.370;10.930;2023-05-14T11:00:03;93.47;;;42.88;;
13255;SDS011;37913;48.370;10.930;2023-05-14T11:02:33;85.60;;;41.00;;
13255;SDS011;37913;48.370;10.930;2023-05-14T11:05:03;87.75;;;43.88;;
13255;SDS011;37913;48.370;10.930;2023-05-14T11:07:33;87.63;;;41.92;;
13255;SDS011;37913;48.370;10.930;2023-05-14T11:10:02;92.80;;;44.95;;
13255;SDS011;37913;48.370;10.930;2023-05-14T11:12:30;91.38;;;43.13;;
13255;SDS011;37913;48.370;10.930;2023-05-14T11:14:58;106.75;;;47.05;;
13255;SDS011;37913;48.370;10.930;2023-05-14T11:17:27;99.20;;;45.70;;
13255;SDS011;37913;48.370;10.930;2023-05-14T11:19:56;102.53;;;45.85;;
13255;SDS011;37913;48.370;10.930;2023-05-14T11:22:24;91.50;;;44.22;;
13255;SDS011;37913;48.370;10.930;2023-05-14T11:24:51;97.07;;;44.92;;
13255;SDS011;37913;48.370;10.930;2023-05-14T11:27:18;92.90;;;46.95;;
13255;SDS011;37913;48.370;10.930;2023-05-14T11:29:46;98.93;;;47.72;;
13255;SDS011;37913;48.370;10.930;2023-05-14T11:32:14;91.28;;;45.20;;
13255;SDS011;37913;48.370;10.930;2023-05-14T11:34:43;94.45;;;44.90;;
13255;SDS011;37913;48.370;10.930;2023-05-14T11:37:11;91.43;;;44.72;;
13255;SDS011;37913;48.370;10.930;2023-05-14T11:39:44;99.78;;;48.00;;
13255;SDS011;37913;48.370;10.930;2023-05-14T11:42:13;88.18;;;44.38;;
13255;SDS011;37913;48.370;10.930;2023-05-14T11:44:42;102.03;;;46.13;;
13255;SDS011;37913;48.370;10.930;2023-05-14T11:47:10;91.00;;;43.72;;
13255;SDS011;37913;48.370;10.930;2023-05-14T11:49:37;102.90;;;47.70;;
13255;SDS011;37913;48.370;10.930;2023-05-14T11:52:06;98.38;;;49.40;;
13255;SDS011;37913;48.370;10.930;2023-05-14T11:54:36;92.22;;;46.45;;
13255;SDS011;37913;48.370;10.930;2023-05-14T11:57:06;98.88;;;48.30;;
13255;SDS011;37913;48.370;10.930;2023-05-14T11:59:33;88.20;;;46.55;;
13255;SDS011;37913;48.370;10.930;2023-05-14T12:02:01;99.90;;;48.70;;
13255;SDS011;37913;48.370;10.930;2023-05-14T12:04:28;93.05;;;48.38;;
13255;SDS011;37913;48.370;10.930;2023-05-14T12:06:56;97.95;;;48.38;;
13255;SDS011;37913;48.370;10.930;2023-05-14T12:09:25;105.80;;;49.15;;
13255;SDS011;37913;48.370;10.930;2023-05-14T12:11:52;94.40;;;47.10;;
13255;SDS011;37913;48.370;10.930;2023-05-14T12:14:20;86.90;;;45.28;;
13255;SDS011;37913;48.370;10.930;2023-05-14T12:16:48;84.25;;;47.67;;
13255;SDS011;37913;48.370;10.930;2023-05-14T12:19:16;75.40;;;41.00;;
13255;SDS011;37913;48.370;10.930;2023-05-14T12:21:46;91.60;;;45.10;;
13255;SDS011;37913;48.370;10.930;2023-05-14T12:24:15;85.53;;;43.17;;
13255;SDS011;37913;48.370;10.930;2023-05-14T12:26:45;86.97;;;43.70;;
13255;SDS011;37913;48.370;10.930;2023-05-14T12:29:13;96.68;;;44.67;;
13255;SDS011;37913;48.370;10.930;2023-05-14T12:31:44;87.88;;;43.25;;
13255;SDS011;37913;48.370;10.930;2023-05-14T12:34:12;86.22;;;42.33;;
13255;SDS011;37913;48.370;10.930;2023-05-14T12:36:39;91.55;;;43.72;;
13255;SDS011;37913;48.370;10.930;2023-05-14T12:39:06;83.70;;;42.55;;
13255;SDS011;37913;48.370;10.930;2023-05-14T12:41:34;84.32;;;43.97;;
13255;SDS011;37913;48.370;10.930;2023-05-14T12:44:03;96.43;;;48.28;;
13255;SDS011;37913;48.370;10.930;2023-05-14T12:46:31;91.07;;;50.88;;
13255;SDS011;37913;48.370;10.930;2023-05-14T12:48:58;95.13;;;54.83;;
13255;SDS011;37913;48.370;10.930;2023-05-14T12:51:25;94.07;;;57.10;;
13255;SDS011;37913;48.370;10.930;2023-05-14T12:53:53;93.60;;;59.72;;
13255;SDS011;37913;48.370;10.930;2023-05-14T12:56:20;90.05;;;60.53;;
13255;SDS011;37913;48.370;10.930;2023-05-14T12:58:51;94.60;;;60.97;;
13255;SDS011;37913;48.370;10.930;2023-05-14T13:01:21;102.82;;;66.18;;
13255;SDS011;37913;48.370;10.930;2023-05-14T13:03:48;105.65;;;64.43;;
13255;SDS011;37913;48.370;10.930;2023-05-14T13:06:15;91.00;;;59.28;;
13255;SDS011;37913;48.370;10.930;2023-05-14T13:08:42;92.60;;;61.25;;
13255;SDS011;37913;48.370;10.930;2023-05-14T13:11:09;97.30;;;62.63;;
13255;SDS011;37913;48.370;10.930;2023-05-14T13:13:36;88.20;;;58.38;;
13255;SDS011;37913;48.370;10.930;2023-05-14T13:16:06;86.40;;;59.90;;
13255;SDS011;37913;48.370;10.930;2023-05-14T13:18:35;92.47;;;55.53;;
13255;SDS011;37913;48.370;10.930;2023-05-14T13:21:02;80.82;;;53.50;;
13255;SDS011;37913;48.370;10.930;2023-05-14T13:23:30;86.15;;;52.85;;
13255;SDS011;37913;48.370;10.930;2023-05-14T13:25:57;86.78;;;53.03;;
13255;SDS011;37913;48.370;10.930;2023-05-14T13:28:24;90.40;;;51.72;;
13255;SDS011;37913;48.370;10.930;2023-05-14T13:31:05;79.57;;;50.58;;
13255;SDS011;37913;48.370;10.930;2023-05-14T13:33:35;89.40;;;52.80;;
13255;SDS011;37913;48.370;10.930;2023-05-14T13:38:35;92.82;;;53.63;;
13255;SDS011;37913;48.370;10.930;2023-05-14T13:41:06;81.85;;;50.90;;
13255;SDS011;37913;48.370;10.930;2023-05-14T13:43:34;82.65;;;51.47;;
13255;SDS011;37913;48.370;10.930;2023-05-14T13:46:01;76.30;;;50.20;;
13255;SDS011;37913;48.370;10.930;2023-05-14T13:48:29;88.45;;;51.17;;
13255;SDS011;37913;48.370;10.930;2023-05-14T13:50:57;99.00;;;52.65;;
13255;SDS011;37913;48.370;10.930;2023-05-14T13:53:25;91.60;;;50.88;;
13255;SDS011;37913;48.370;10.930;2023-05-14T13:55:52;95.32;;;50.35;;
13255;SDS011;37913;48.370;10.930;2023-05-14T13:58:20;99.20;;;50.83;;
13255;SDS011;37913;48.370;10.930;2023-05-14T14:00:48;75.82;;;44.97;;
13255;SDS011;37913;48.370;10.930;2023-05-14T14:03:15;94.57;;;48.85;;
13255;SDS011;37913;48.370;10.930;2023-05-14T14:05:42;89.50;;;46.92;;
13255;SDS011;37913;48.370;10.930;2023-05-14T14:08:11;90.53;;;46.40;;
13255;SDS011;37913;48.370;10.930;2023-05-14T14:10:38;93.65;;;46.65;;
13255;SDS011;37913;48.370;10.930;2023-05-14T14:13:06;92.63;;;47.60;;